createdAt,value
2019-06-07T00:00:54.199Z,99.90
2019-06-07T00:02:59.072Z,99.90
2019-06-07T00:05:04.596Z,99.90
2019-06-07T00:07:10.634Z,99.90
2019-06-07T00:09:18.638Z,99.90
2019-06-07T00:11:23.383Z,99.90
2019-06-07T00:13:28.710Z,99.90
2019-06-07T00:15:33.855Z,99.90
2019-06-07T00:17:38.673Z,99.90
2019-06-07T00:19:43.475Z,99.90
2019-06-07T00:23:55.547Z,99.90
2019-06-07T00:26:00.666Z,99.90
2019-06-07T00:28:05.708Z,99.90
2019-06-07T00:30:39.444Z,99.90
2019-06-07T00:32:19.988Z,99.90
2019-06-07T00:34:25.074Z,99.90
2019-06-07T00:36:29.936Z,99.90
2019-06-07T00:38:34.808Z,99.90
2019-06-07T00:40:40.043Z,99.90
2019-06-07T00:42:45.300Z,99.90
2019-06-07T00:44:50.456Z,99.90
2019-06-07T00:46:55.212Z,99.90
2019-06-07T00:49:00.904Z,99.90
2019-06-07T00:51:05.815Z,99.90
2019-06-07T00:53:16.898Z,99.90
2019-06-07T00:55:20.122Z,99.90
2019-06-07T00:57:24.665Z,99.90
2019-06-07T00:59:30.052Z,99.90
2019-06-07T01:01:34.818Z,99.90
2019-06-07T01:03:40.117Z,99.90
2019-06-07T01:05:45.802Z,99.90
2019-06-07T01:07:50.596Z,99.90
2019-06-07T01:09:55.388Z,99.90
2019-06-07T01:12:00.196Z,99.90
2019-06-07T01:14:05.850Z,99.90
2019-06-07T01:16:10.691Z,99.90
2019-06-07T01:20:24.373Z,99.90
2019-06-07T01:22:29.687Z,99.90
2019-06-07T01:24:34.570Z,99.90
2019-06-07T01:26:39.775Z,99.90
2019-06-07T01:28:44.675Z,99.90
2019-06-07T01:30:49.823Z,99.90
2019-06-07T01:32:54.697Z,99.90
2019-06-07T01:34:59.687Z,99.90
2019-06-07T01:37:04.540Z,99.90
2019-06-07T01:39:09.426Z,99.90
2019-06-07T01:41:14.142Z,99.90
2019-06-07T01:43:19.522Z,99.90
2019-06-07T01:45:27.041Z,99.90
2019-06-07T01:47:32.412Z,99.90
2019-06-07T01:49:37.402Z,99.90
2019-06-07T01:51:42.327Z,99.90
2019-06-07T01:53:47.525Z,99.90
2019-06-07T01:55:52.376Z,99.90
2019-06-07T01:57:57.311Z,99.90
2019-06-07T02:00:02.109Z,99.90
2019-06-07T02:02:07.187Z,99.90
2019-06-07T02:04:11.971Z,99.90
2019-06-07T02:06:18.422Z,99.90
2019-06-07T02:08:24.493Z,99.90
2019-06-07T02:10:33.191Z,99.90
2019-06-07T02:12:43.201Z,99.90
2019-06-07T02:14:43.108Z,99.90
2019-06-07T02:16:47.920Z,99.90
2019-06-07T02:19:01.736Z,99.90
2019-06-07T02:20:59.389Z,99.90
2019-06-07T02:23:04.466Z,99.90
2019-06-07T02:27:16.236Z,99.90
2019-06-07T02:29:21.027Z,99.90
2019-06-07T02:31:28.670Z,99.90
2019-06-07T02:33:39.653Z,99.90
2019-06-07T02:35:40.906Z,99.90
2019-06-07T02:37:45.552Z,99.90
2019-06-07T02:39:50.585Z,99.90
2019-06-07T02:41:55.398Z,99.90
2019-06-07T02:44:00.248Z,99.90
2019-06-07T02:46:24.991Z,99.90
2019-06-07T02:48:13.189Z,99.90
2019-06-07T02:50:18.639Z,99.90
2019-06-07T02:52:27.195Z,99.90
2019-06-07T02:54:40.613Z,99.90
2019-06-07T02:56:58.381Z,99.90
2019-06-07T02:59:06.116Z,99.90
2019-06-07T03:01:14.501Z,99.90
2019-06-07T03:03:30.602Z,99.90
2019-06-07T03:05:40.782Z,99.90
2019-06-07T03:07:45.760Z,99.90
2019-06-07T03:09:51.473Z,99.90
2019-06-07T03:11:59.308Z,99.90
2019-06-07T03:14:05.452Z,99.90
2019-06-07T03:16:11.849Z,99.90
2019-06-07T03:18:36.567Z,99.90
2019-06-07T03:20:43.460Z,99.90
2019-06-07T03:22:50.700Z,99.90
2019-06-07T03:24:56.667Z,99.90
2019-06-07T03:29:09.830Z,99.90
2019-06-07T03:31:14.767Z,99.90
2019-06-07T03:33:19.793Z,99.90
2019-06-07T03:35:24.803Z,99.90
2019-06-07T03:37:34.447Z,99.90
2019-06-07T03:39:39.342Z,99.90
2019-06-07T03:42:02.769Z,99.90
2019-06-07T03:43:49.866Z,99.90
2019-06-07T03:45:54.692Z,99.90
2019-06-07T03:47:59.522Z,99.90
2019-06-07T03:50:04.807Z,99.90
2019-06-07T03:52:09.539Z,99.90
2019-06-07T03:54:14.400Z,99.90
2019-06-07T03:56:19.201Z,99.90
2019-06-07T03:58:38.044Z,99.90
2019-06-07T04:00:34.444Z,99.90
2019-06-07T04:02:41.700Z,99.90
2019-06-07T04:04:45.501Z,99.90
2019-06-07T04:06:50.662Z,99.90
2019-06-07T04:08:55.764Z,99.90
2019-06-07T04:11:01.502Z,99.90
2019-06-07T04:13:06.760Z,99.90
2019-06-07T04:15:11.880Z,99.90
2019-06-07T04:17:16.778Z,99.90
2019-06-07T04:19:21.587Z,99.90
2019-06-07T04:21:29.595Z,99.90
2019-06-07T04:23:37.605Z,99.90
2019-06-07T04:25:42.710Z,99.90
2019-06-07T04:27:47.417Z,99.90
2019-06-07T04:30:06.785Z,99.90
2019-06-07T04:31:58.956Z,99.90
2019-06-07T04:34:04.167Z,99.90
2019-06-07T04:36:09.649Z,99.90
2019-06-07T04:38:15.049Z,99.90
2019-06-07T04:40:19.956Z,99.90
2019-06-07T04:42:26.431Z,99.90
2019-06-07T04:44:34.956Z,99.90
2019-06-07T04:46:43.926Z,99.90
2019-06-07T04:48:53.757Z,99.90
2019-06-07T04:51:00.448Z,99.90
2019-06-07T04:53:05.778Z,99.90
2019-06-07T04:55:10.686Z,99.90
2019-06-07T04:57:15.565Z,99.90
2019-06-07T05:00:00.956Z,99.90
2019-06-07T05:01:29.641Z,99.90
2019-06-07T05:03:37.064Z,99.90
2019-06-07T05:05:43.209Z,99.90
2019-06-07T05:07:47.176Z,99.90
2019-06-07T05:09:52.023Z,99.90
2019-06-07T05:11:56.878Z,99.90
2019-06-07T05:14:01.782Z,99.90
2019-06-07T05:16:06.738Z,99.90
2019-06-07T05:18:12.010Z,99.90
2019-06-07T05:20:16.985Z,99.90
2019-06-07T05:22:22.046Z,99.90
2019-06-07T05:24:27.339Z,99.90
2019-06-07T05:26:33.052Z,99.90
2019-06-07T05:28:42.310Z,99.90
2019-06-07T05:31:05.273Z,99.90
2019-06-07T05:32:52.282Z,99.90
2019-06-07T05:34:57.188Z,99.90
2019-06-07T05:37:11.650Z,99.90
2019-06-07T05:39:08.895Z,99.90
2019-06-07T05:41:13.708Z,99.90
2019-06-07T05:43:34.311Z,99.90
2019-06-07T05:45:39.126Z,99.90
2019-06-07T05:47:50.272Z,99.90
2019-06-07T05:49:50.812Z,99.90
2019-06-07T05:51:55.839Z,99.90
2019-06-07T05:54:00.800Z,99.90
2019-06-07T05:56:05.746Z,99.90
2019-06-07T05:58:10.723Z,99.90
2019-06-07T06:00:15.949Z,99.90
2019-06-07T06:02:23.237Z,99.90
2019-06-07T06:04:27.610Z,99.90
2019-06-07T06:06:33.897Z,99.90
2019-06-07T06:08:40.091Z,99.90
2019-06-07T06:10:48.666Z,99.90
2019-06-07T06:12:52.498Z,99.90
2019-06-07T06:14:57.332Z,99.90
2019-06-07T06:17:02.602Z,99.90
2019-06-07T06:19:07.488Z,99.90
2019-06-07T06:21:19.211Z,99.90
2019-06-07T06:23:19.331Z,99.90
2019-06-07T06:25:33.966Z,99.90
2019-06-07T06:28:03.108Z,99.90
2019-06-07T06:29:40.138Z,99.90
2019-06-07T06:32:35.466Z,99.90
2019-06-07T06:33:51.792Z,99.90
2019-06-07T06:35:57.025Z,99.90
2019-06-07T06:38:02.357Z,99.90
2019-06-07T06:40:08.054Z,99.90
2019-06-07T06:42:12.803Z,99.90
2019-06-07T06:44:18.039Z,99.90
2019-06-07T06:46:38.077Z,99.90
2019-06-07T06:48:30.261Z,99.90
2019-06-07T06:50:35.106Z,99.90
2019-06-07T06:52:43.499Z,99.90
2019-06-07T06:54:55.392Z,99.90
2019-06-07T06:57:17.270Z,99.90
2019-06-07T06:59:33.988Z,99.90
2019-06-07T07:01:07.713Z,99.90
2019-06-07T07:05:19.628Z,99.90
2019-06-07T07:07:26.787Z,99.90
2019-06-07T07:09:34.276Z,99.90
2019-06-07T07:11:55.108Z,99.90
2019-06-07T07:13:49.874Z,99.90
2019-06-07T07:15:57.868Z,99.90
2019-06-07T07:18:08.142Z,99.90
2019-06-07T07:20:07.476Z,99.90
2019-06-07T07:22:12.221Z,99.90
2019-06-07T07:24:21.486Z,99.90
2019-06-07T07:26:24.047Z,99.90
2019-06-07T07:28:29.635Z,99.90
2019-06-07T07:30:44.916Z,99.90
2019-06-07T07:32:52.870Z,99.90
2019-06-07T07:35:00.591Z,99.80
2019-06-07T07:37:02.882Z,99.20
2019-06-07T07:39:08.371Z,99.40
2019-06-07T07:41:15.726Z,98.90
2019-06-07T07:43:21.022Z,99.10
2019-06-07T07:45:26.103Z,99.40
2019-06-07T07:47:31.362Z,99.40
2019-06-07T07:49:36.493Z,99.70
2019-06-07T07:51:41.341Z,99.90
2019-06-07T07:53:55.995Z,98.80
2019-06-07T07:55:59.315Z,98.90
2019-06-07T07:58:01.636Z,99.20
2019-06-07T08:00:48.702Z,98.20
2019-06-07T08:02:13.507Z,97.40
2019-06-07T08:04:29.286Z,97.20
2019-06-07T08:06:27.868Z,97.30
2019-06-07T08:08:33.056Z,96.90
2019-06-07T08:10:38.051Z,97.20
2019-06-07T08:13:00.502Z,97.20
2019-06-07T08:14:51.140Z,97.30
2019-06-07T08:16:57.966Z,97.40
2019-06-07T08:19:04.322Z,96.90
2019-06-07T08:21:24.350Z,96.40
2019-06-07T08:23:16.787Z,96.40
2019-06-07T08:25:21.971Z,96.60
2019-06-07T08:27:27.143Z,97.20
2019-06-07T08:29:44.387Z,96.50
2019-06-07T08:31:39.422Z,96.20
2019-06-07T08:33:44.616Z,96.20
2019-06-07T08:36:19.625Z,96.20
2019-06-07T08:38:21.373Z,96.20
2019-06-07T08:40:02.834Z,96.40
2019-06-07T08:42:17.634Z,97.10
2019-06-07T08:44:23.432Z,96.40
2019-06-07T08:46:20.822Z,96.70
2019-06-07T08:48:28.275Z,96.50
2019-06-07T08:50:32.340Z,97.70
2019-06-07T08:52:37.252Z,97.10
2019-06-07T08:54:42.148Z,96.80
2019-06-07T08:56:47.418Z,96.50
2019-06-07T08:58:55.019Z,97.70
2019-06-07T09:01:05.831Z,97.50
2019-06-07T09:03:07.500Z,97.70
2019-06-07T09:05:12.865Z,98.10
2019-06-07T09:07:20.054Z,96.80
2019-06-07T09:09:24.666Z,97.10
2019-06-07T09:11:29.530Z,97.00
2019-06-07T09:13:34.406Z,97.80
2019-06-07T09:15:39.369Z,98.80
2019-06-07T09:18:30.442Z,97.00
2019-06-07T09:19:50.926Z,96.90
2019-06-07T09:21:57.468Z,97.00
2019-06-07T09:24:07.077Z,97.10
2019-06-07T09:26:16.563Z,97.10
2019-06-07T09:28:20.066Z,96.90
2019-06-07T09:30:39.140Z,97.50
2019-06-07T09:32:44.013Z,98.10
2019-06-07T09:34:49.346Z,97.60
2019-06-07T09:36:58.264Z,97.10
2019-06-07T09:39:07.629Z,97.60
2019-06-07T09:41:09.786Z,97.70
2019-06-07T09:45:21.225Z,97.40
2019-06-07T09:47:32.391Z,97.60
2019-06-07T09:49:33.587Z,96.90
2019-06-07T09:51:38.542Z,97.60
2019-06-07T09:53:43.407Z,97.40
2019-06-07T09:55:48.976Z,97.00
2019-06-07T09:57:53.767Z,96.90
2019-06-07T09:59:59.561Z,97.60
2019-06-07T10:02:06.348Z,97.50
2019-06-07T10:04:28.470Z,97.50
2019-06-07T10:06:18.501Z,97.60
2019-06-07T10:09:42.582Z,97.70
2019-06-07T10:12:34.983Z,96.40
2019-06-07T10:14:39.887Z,96.90
2019-06-07T10:16:46.705Z,96.70
2019-06-07T10:18:51.364Z,96.60
2019-06-07T10:20:56.640Z,96.90
2019-06-07T10:23:01.711Z,96.80
2019-06-07T10:25:08.331Z,96.40
2019-06-07T10:27:13.256Z,96.70
2019-06-07T10:29:18.186Z,96.10
2019-06-07T10:31:23.046Z,96.80
2019-06-07T10:33:27.994Z,97.40
2019-06-07T10:35:33.583Z,97.60
2019-06-07T10:37:39.018Z,97.00
2019-06-07T10:39:48.651Z,96.10
2019-06-07T10:41:53.366Z,95.80
2019-06-07T10:43:56.809Z,95.90
2019-06-07T10:46:01.946Z,95.30
2019-06-07T10:48:09.890Z,95.80
2019-06-07T10:50:15.685Z,95.90
2019-06-07T10:52:20.515Z,95.20
2019-06-07T10:54:30.328Z,95.20
2019-06-07T10:56:32.066Z,95.00
2019-06-07T10:58:36.881Z,95.60
2019-06-07T11:00:41.892Z,95.20
2019-06-07T11:02:46.662Z,94.90
2019-06-07T11:04:51.433Z,95.10
2019-06-07T11:06:56.197Z,94.80
2019-06-07T11:09:01.147Z,94.90
2019-06-07T11:11:06.101Z,95.30
2019-06-07T11:13:12.372Z,95.70
2019-06-07T11:15:17.556Z,95.50
2019-06-07T11:17:22.429Z,94.50
2019-06-07T11:19:27.257Z,94.80
2019-06-07T11:21:32.070Z,94.40
2019-06-07T11:23:36.943Z,94.50
2019-06-07T11:25:41.817Z,94.70
2019-06-07T11:27:46.881Z,94.70
2019-06-07T11:29:52.216Z,94.40
2019-06-07T11:31:57.417Z,94.60
2019-06-07T11:34:02.438Z,94.20
2019-06-07T11:36:08.476Z,94.90
2019-06-07T11:38:14.572Z,94.70
2019-06-07T11:40:35.132Z,94.00
2019-06-07T11:42:27.250Z,93.70
2019-06-07T11:44:32.057Z,94.10
2019-06-07T11:46:36.995Z,94.30
2019-06-07T11:48:41.918Z,94.40
2019-06-07T11:50:46.768Z,94.30
2019-06-07T11:52:52.072Z,94.50
2019-06-07T11:54:56.845Z,94.00
2019-06-07T11:57:01.717Z,94.90
2019-06-07T11:59:07.042Z,94.80
2019-06-07T12:01:12.380Z,94.50
2019-06-07T12:03:18.451Z,93.80
2019-06-07T12:05:23.300Z,94.30
2019-06-07T12:07:29.123Z,93.50
2019-06-07T12:09:34.085Z,93.60
2019-06-07T12:11:39.229Z,93.00
2019-06-07T12:13:44.704Z,93.30
2019-06-07T12:15:49.555Z,93.70
2019-06-07T12:17:54.415Z,94.10
2019-06-07T12:19:59.234Z,93.70
2019-06-07T12:22:04.569Z,93.80
2019-06-07T12:24:10.328Z,93.60
2019-06-07T12:26:16.590Z,93.20
2019-06-07T12:28:21.936Z,93.00
2019-06-07T12:30:28.049Z,93.60
2019-06-07T12:32:33.114Z,94.10
2019-06-07T12:34:37.942Z,93.70
2019-06-07T12:36:43.519Z,92.60
2019-06-07T12:38:48.311Z,92.90
2019-06-07T12:40:57.532Z,92.50
2019-06-07T12:42:59.806Z,92.60
2019-06-07T12:45:04.914Z,92.40
2019-06-07T12:47:10.144Z,92.20
2019-06-07T12:49:15.054Z,91.90
2019-06-07T12:51:21.065Z,91.80
2019-06-07T12:53:28.123Z,91.70
2019-06-07T12:55:32.860Z,91.80
2019-06-07T12:57:38.154Z,91.90
2019-06-07T12:59:43.035Z,90.80
2019-06-07T13:01:47.940Z,90.90
2019-06-07T13:03:52.852Z,91.70
2019-06-07T13:05:57.817Z,91.40
2019-06-07T13:08:02.922Z,90.60
2019-06-07T13:10:08.302Z,90.20
2019-06-07T13:12:13.193Z,91.10
2019-06-07T13:14:18.091Z,91.40
2019-06-07T13:16:24.220Z,91.90
2019-06-07T13:18:29.305Z,91.80
2019-06-07T13:20:34.474Z,91.20
2019-06-07T13:22:39.441Z,92.20
2019-06-07T13:24:44.304Z,91.30
2019-06-07T13:26:49.273Z,92.20
2019-06-07T13:28:54.113Z,91.30
2019-06-07T13:30:59.206Z,91.40
2019-06-07T13:33:04.503Z,93.40
2019-06-07T13:35:09.789Z,93.70
2019-06-07T13:37:14.762Z,92.60
2019-06-07T13:39:23.233Z,88.20
2019-06-07T13:41:36.828Z,85.60
2019-06-07T13:43:34.073Z,86.50
2019-06-07T13:45:39.149Z,83.90
2019-06-07T13:47:44.422Z,83.20
2019-06-07T13:49:49.368Z,83.20
2019-06-07T13:51:54.239Z,85.40
2019-06-07T13:53:59.434Z,85.50
2019-06-07T13:56:05.333Z,85.50
2019-06-07T13:58:10.253Z,85.30
2019-06-07T14:00:18.637Z,84.60
2019-06-07T14:02:24.043Z,82.70
2019-06-07T14:04:30.191Z,83.80
2019-06-07T14:06:35.133Z,83.80
2019-06-07T14:08:40.182Z,82.90
2019-06-07T14:10:45.026Z,82.10
2019-06-07T14:12:49.938Z,82.40
2019-06-07T14:14:55.137Z,81.50
2019-06-07T14:16:59.980Z,83.60
2019-06-07T14:19:04.899Z,84.40
2019-06-07T14:21:09.780Z,83.40
2019-06-07T14:23:14.652Z,83.10
2019-06-07T14:25:19.795Z,83.40
2019-06-07T14:27:25.807Z,82.80
2019-06-07T14:29:31.770Z,84.90
2019-06-07T14:31:37.392Z,83.80
2019-06-07T14:33:42.681Z,86.30
2019-06-07T14:35:47.889Z,84.70
2019-06-07T14:37:52.823Z,84.10
2019-06-07T14:39:58.475Z,84.90
2019-06-07T14:42:09.114Z,84.90
2019-06-07T14:44:09.829Z,84.80
2019-06-07T14:46:14.575Z,84.20
2019-06-07T14:48:19.416Z,84.20
2019-06-07T14:50:24.546Z,83.10
2019-06-07T14:52:30.612Z,83.80
2019-06-07T14:54:38.894Z,85.50
2019-06-07T14:56:42.326Z,87.80
2019-06-07T14:58:47.129Z,92.00
2019-06-07T15:00:51.932Z,93.10
2019-06-07T15:02:56.719Z,94.30
2019-06-07T15:05:02.062Z,95.80
2019-06-07T15:07:08.938Z,97.00
2019-06-07T15:09:15.577Z,98.70
2019-06-07T15:11:20.542Z,99.30
2019-06-07T15:13:25.389Z,99.90
2019-06-07T15:15:30.843Z,99.90
2019-06-07T15:17:36.002Z,99.90
2019-06-07T15:19:41.178Z,99.90
2019-06-07T15:21:46.240Z,99.90
2019-06-07T15:23:51.233Z,99.90
2019-06-07T15:25:57.208Z,99.90
2019-06-07T15:28:02.104Z,99.90
2019-06-07T15:30:11.128Z,99.90
2019-06-07T15:32:16.282Z,99.90
2019-06-07T15:34:22.660Z,99.90
2019-06-07T15:36:28.284Z,99.90
2019-06-07T15:38:33.243Z,99.90
2019-06-07T15:40:39.580Z,99.90
2019-06-07T15:42:52.419Z,99.90
2019-06-07T15:44:51.088Z,99.90
2019-06-07T15:46:56.136Z,99.90
2019-06-07T15:49:02.618Z,99.90
2019-06-07T15:51:07.571Z,99.90
2019-06-07T15:53:12.453Z,99.90
2019-06-07T15:55:19.419Z,99.90
2019-06-07T15:57:24.338Z,99.90
2019-06-07T15:59:29.196Z,99.90
2019-06-07T16:01:35.563Z,99.90
2019-06-07T16:03:41.944Z,99.90
2019-06-07T16:05:47.173Z,99.90
2019-06-07T16:07:52.116Z,99.90
2019-06-07T16:09:57.297Z,99.90
2019-06-07T16:12:02.453Z,99.90
2019-06-07T16:15:29.379Z,99.90
2019-06-07T16:18:14.611Z,99.90
2019-06-07T16:20:19.674Z,99.90
2019-06-07T16:22:24.636Z,99.90
2019-06-07T16:24:29.417Z,99.90
2019-06-07T16:26:34.382Z,99.90
2019-06-07T16:28:40.441Z,99.90
2019-06-07T16:30:45.806Z,99.90
2019-06-07T16:32:50.948Z,99.90
2019-06-07T16:34:55.790Z,99.90
2019-06-07T16:37:00.769Z,99.90
2019-06-07T16:39:07.641Z,99.90
2019-06-07T16:41:12.547Z,99.90
2019-06-07T16:43:18.558Z,99.90
2019-06-07T16:45:23.653Z,99.90
2019-06-07T16:47:28.414Z,99.90
2019-06-07T16:49:33.212Z,99.90
2019-06-07T16:51:39.099Z,99.90
2019-06-07T16:53:44.664Z,99.90
2019-06-07T16:55:49.536Z,99.90
2019-06-07T16:57:54.423Z,99.90
2019-06-07T16:59:59.503Z,99.90
2019-06-07T17:02:04.452Z,99.90
2019-06-07T17:04:09.856Z,99.90
2019-06-07T17:06:14.753Z,99.90
2019-06-07T17:08:20.017Z,99.90
2019-06-07T17:10:25.122Z,99.90
2019-06-07T17:12:29.966Z,99.90
2019-06-07T17:14:34.882Z,99.90
2019-06-07T17:16:40.864Z,99.90
2019-06-07T17:18:47.104Z,99.90
2019-06-07T17:20:52.211Z,99.90
2019-06-07T17:22:57.183Z,99.90
2019-06-07T17:25:02.071Z,99.90
2019-06-07T17:27:07.850Z,99.90
2019-06-07T17:29:12.836Z,99.90
2019-06-07T17:31:18.347Z,99.90
2019-06-07T17:33:23.471Z,99.90
2019-06-07T17:35:28.471Z,99.90
2019-06-07T17:37:33.565Z,99.90
2019-06-07T17:39:38.888Z,99.90
2019-06-07T17:41:55.160Z,99.90
2019-06-07T17:43:58.500Z,99.90
2019-06-07T17:45:59.176Z,99.90
2019-06-07T17:48:04.300Z,99.90
2019-06-07T17:50:10.194Z,99.90
2019-06-07T17:52:15.613Z,99.90
2019-06-07T17:54:21.070Z,99.90
2019-06-07T17:56:26.763Z,99.90
2019-06-07T17:58:31.633Z,99.90
2019-06-07T18:01:01.403Z,99.90
2019-06-07T18:03:06.316Z,99.90
2019-06-07T18:05:11.414Z,99.90
2019-06-07T18:07:18.721Z,99.90
2019-06-07T18:09:26.168Z,99.90
2019-06-07T18:11:31.315Z,99.90
2019-06-07T18:13:36.529Z,99.90
2019-06-07T18:15:44.362Z,99.90
2019-06-07T18:17:50.692Z,99.90
2019-06-07T18:19:55.554Z,99.90
2019-06-07T18:22:00.841Z,99.90
2019-06-07T18:24:06.126Z,99.90
2019-06-07T18:26:11.172Z,99.90
2019-06-07T18:28:16.303Z,99.90
2019-06-07T18:30:21.935Z,99.90
2019-06-07T18:32:27.008Z,99.90
2019-06-07T18:34:32.176Z,99.90
2019-06-07T18:36:37.174Z,99.90
2019-06-07T18:38:42.601Z,99.90
2019-06-07T18:40:49.014Z,99.90
2019-06-07T18:42:55.233Z,99.90
2019-06-07T18:45:02.300Z,99.90
2019-06-07T18:47:07.385Z,99.90
2019-06-07T18:49:14.454Z,99.90
2019-06-07T18:51:19.982Z,99.90
2019-06-07T18:53:25.563Z,99.90
2019-06-07T18:55:30.451Z,99.90
2019-06-07T18:57:36.022Z,99.90
2019-06-07T18:59:41.473Z,99.90
2019-06-07T19:01:47.262Z,99.90
2019-06-07T19:03:56.204Z,99.90
2019-06-07T19:06:02.340Z,99.90
2019-06-07T19:08:19.331Z,99.90
2019-06-07T19:10:26.785Z,99.90
2019-06-07T19:12:31.822Z,99.90
2019-06-07T19:14:37.562Z,99.90
2019-06-07T19:16:43.524Z,99.90
2019-06-07T19:18:50.164Z,99.90
2019-06-07T19:20:56.459Z,99.90
2019-06-07T19:23:01.479Z,99.90
2019-06-07T19:25:06.957Z,99.90
2019-06-07T19:27:12.575Z,99.90
2019-06-07T19:29:17.632Z,99.90
2019-06-07T19:31:22.663Z,99.90
2019-06-07T19:33:30.886Z,99.90
2019-06-07T19:35:36.431Z,99.90
2019-06-07T19:37:43.256Z,99.90
2019-06-07T19:39:48.194Z,99.90
2019-06-07T19:41:54.028Z,99.90
2019-06-07T19:43:58.926Z,99.90
2019-06-07T19:46:08.037Z,99.90
2019-06-07T19:48:13.499Z,99.90
2019-06-07T19:50:19.112Z,99.90
2019-06-07T19:52:24.004Z,99.90
2019-06-07T19:54:28.971Z,99.90
2019-06-07T19:56:34.089Z,99.90
2019-06-07T19:58:39.116Z,99.90
2019-06-07T20:00:46.526Z,99.90
2019-06-07T20:02:51.553Z,99.90
2019-06-07T20:05:01.041Z,99.90
2019-06-07T20:07:03.910Z,99.90
2019-06-07T20:09:09.820Z,99.90
2019-06-07T20:11:15.453Z,99.90
2019-06-07T20:13:20.310Z,99.90
2019-06-07T20:15:29.256Z,99.90
2019-06-07T20:17:33.119Z,99.90
2019-06-07T20:19:38.170Z,99.90
2019-06-07T20:21:43.038Z,99.90
2019-06-07T20:23:48.796Z,99.90
2019-06-07T20:25:54.003Z,99.90
2019-06-07T20:27:59.696Z,99.90
2019-06-07T20:30:06.398Z,99.90
2019-06-07T20:32:12.101Z,99.90
2019-06-07T20:34:17.230Z,99.90
2019-06-07T20:36:22.521Z,99.90
2019-06-07T20:38:27.734Z,99.90
2019-06-07T20:40:33.154Z,99.90
2019-06-07T20:42:37.999Z,99.90
2019-06-07T20:44:42.902Z,99.90
2019-06-07T20:46:48.448Z,99.90
2019-06-07T20:48:53.362Z,99.90
2019-06-07T20:50:59.265Z,99.90
2019-06-07T20:53:05.149Z,99.90
2019-06-07T20:55:10.127Z,99.90
2019-06-07T20:57:14.899Z,99.90
2019-06-07T20:59:20.169Z,99.90
2019-06-07T21:01:25.063Z,99.90
2019-06-07T21:03:29.944Z,99.90
2019-06-07T21:05:35.562Z,99.90
2019-06-07T21:07:40.493Z,99.90
2019-06-07T21:09:45.930Z,99.90
2019-06-07T21:11:50.767Z,99.90
2019-06-07T21:13:55.922Z,99.90
2019-06-07T21:16:01.950Z,99.90
2019-06-07T21:18:15.015Z,99.90
2019-06-07T21:20:14.393Z,99.90
2019-06-07T21:22:19.548Z,99.90
2019-06-07T21:24:25.025Z,99.90
2019-06-07T21:26:30.259Z,99.90
2019-06-07T21:28:35.050Z,99.90
2019-06-07T21:30:41.060Z,99.90
2019-06-07T21:32:46.100Z,99.90
2019-06-07T21:34:51.241Z,99.90
2019-06-07T21:36:56.770Z,99.90
2019-06-07T21:39:02.099Z,99.90
2019-06-07T21:41:08.151Z,99.90
2019-06-07T21:43:13.557Z,99.90
2019-06-07T21:45:18.565Z,99.90
2019-06-07T21:47:23.406Z,99.90
2019-06-07T21:49:29.062Z,99.90
2019-06-07T21:51:33.971Z,99.90
2019-06-07T21:53:39.040Z,99.90
2019-06-07T21:55:43.867Z,99.90
2019-06-07T21:57:49.162Z,99.90
2019-06-07T21:59:54.029Z,99.90
2019-06-07T22:01:58.918Z,99.90
2019-06-07T22:04:05.302Z,99.90
2019-06-07T22:06:11.646Z,99.90
2019-06-07T22:08:17.091Z,99.90
2019-06-07T22:10:21.933Z,99.90
2019-06-07T22:12:26.792Z,99.90
2019-06-07T22:14:32.494Z,99.90
2019-06-07T22:16:38.477Z,99.90
2019-06-07T22:18:43.327Z,99.90
2019-06-07T22:20:48.414Z,99.90
2019-06-07T22:22:53.274Z,99.90
2019-06-07T22:24:58.070Z,99.90
2019-06-07T22:27:02.888Z,99.90
2019-06-07T22:29:08.247Z,99.90
2019-06-07T22:31:14.836Z,99.90
2019-06-07T22:33:20.647Z,99.90
2019-06-07T22:35:25.477Z,99.90
2019-06-07T22:37:30.656Z,99.90
2019-06-07T22:39:35.439Z,99.90
2019-06-07T22:41:40.589Z,99.90
2019-06-07T22:43:45.377Z,99.90
2019-06-07T22:45:50.624Z,99.90
2019-06-07T22:47:55.643Z,99.90
2019-06-07T22:50:00.474Z,99.90
2019-06-07T22:52:09.408Z,99.90
2019-06-07T22:54:13.971Z,99.90
2019-06-07T22:56:24.213Z,99.90
2019-06-07T22:58:29.890Z,99.90
2019-06-07T23:00:35.734Z,99.90
2019-06-07T23:02:40.642Z,99.90
2019-06-07T23:04:45.461Z,99.90
2019-06-07T23:06:50.923Z,99.90
2019-06-07T23:08:56.550Z,99.90
2019-06-07T23:11:01.419Z,99.90
2019-06-07T23:13:06.233Z,99.90
2019-06-07T23:15:11.566Z,99.90
2019-06-07T23:17:17.915Z,99.90
2019-06-07T23:19:23.015Z,99.90
2019-06-07T23:21:28.249Z,99.90
2019-06-07T23:23:33.497Z,99.90
2019-06-07T23:25:38.665Z,99.90
2019-06-07T23:27:43.579Z,99.90
2019-06-07T23:29:48.954Z,99.90
2019-06-07T23:31:55.169Z,99.90
2019-06-07T23:34:00.042Z,99.90
2019-06-07T23:36:04.874Z,99.90
2019-06-07T23:38:10.836Z,99.90
2019-06-07T23:40:17.385Z,99.90
2019-06-07T23:42:22.360Z,99.90
2019-06-07T23:44:27.177Z,99.90
2019-06-07T23:46:31.960Z,99.90
2019-06-07T23:48:37.197Z,99.90
2019-06-07T23:50:42.031Z,99.90
2019-06-07T23:52:46.911Z,99.90
2019-06-07T23:54:51.731Z,99.90
2019-06-07T23:56:56.539Z,99.90
2019-06-07T23:59:01.299Z,99.90
